Portada
METAR-TAF:

METAR-TAF

Aeroports :

Florești, Moldàvia

latitud: 47-51-45N, longitud: 028-12-45E, altitud: 101 m

Observació

L'informe es va fer fa 23 minuts, a les 13:30 UTC
Vent 14 kt del Est/Sud-Est
Temperatura 32°C
Humitat 24%
Pressió 1014 hPa
Visibilitat 10 km o més
sense núvols per sota de 1500 mi sense presència de cumulonimbus.

METAR: LUBM 051330Z 12014KT CAVOK 32/09 Q1014 R25/CLRD65

Hora: 16:53 (13:53 UTC)

Pronòstic

L'informe es va fer fa 2 hores i 33 minuts, a les 11:20 UTC
Pronòstic vàlid del 05 a les 12 UTC al 05 a les 21 UTC
Vent 10 kt del Est/Sud-Est
Visibilitat 10 km o més
sense núvols per sota de 1500 mi sense presència de cumulonimbus.
Evolucionant progressivament
l' 05 a les 15 UTC al 05 a les 17 UTC
Vent 4 kt amb direcció variable

TAF: LUBM 051120Z 0512/0521 11010KT CAVOK BECMG 0515/0517 VRB04KT

Observacions i pronòstics meteorològics de més de 4000 aeroports (METAR i TAF).

Les estacions disponibles són els punts grocs i vermells al mapa.

Posi el ratolí al punt desitjat per veure el nom de l'estació.

Feu clic per veure les observacions i els pronòstics meteorològics.

Per canviar el mapa: feu clic els botons verds amb una creu de color negre per apropar; al botó verd amb un guió per allunyar la imatge; o en les fletxes verdes per a mapes adjacents.


METAR-TAF: